Michipicoten — CFG8060 — position and weather

sailwx.info

Track history (hours):
 
Tides and Currents Weather Stations Pressure Air Temp Water Temp Dewpoint Dewpoint Depression Visibility Wind Speed Wind Dir Waves Ship Positions

Michipicoten

Last reported at 2015-Aug-02 05:33 UTC. Time now 2015-Aug-05 12:30 UTC.
Position N 41°54' W 080°48'.

Length 213 m.

Type: Ship. MMSI: 316002501.

Date/timePositionNaut miles runAvg speedWind from/ knotsBaromVisibWave heightAir tempDewpointWater temp
2015-Aug-02 05:33N 41°54' W 080°48'262 6.4
2015-Jul-31 12:32N 45°55' W 083°13'0 0.0
2015-Jul-31 11:19N 45°55' W 083°13'  
2015-Jul-29 02:33N 46°35' W 087°23'31 2.6
2015-Jul-28 14:30N 46°40' W 086°38'1313.8
2015-Jul-28 13:33N 46°46' W 086°21'1413.6
2015-Jul-28 12:34N 46°49' W 086°02'1413.6
2015-Jul-28 11:34N 46°50' W 085°42'1413.7
2015-Jul-28 10:33N 46°51' W 085°22'1413.6
2015-Jul-28 09:33N 46°48' W 085°02'1512.9
2015-Jul-28 08:23N 46°37' W 084°48'1113.7
2015-Jul-28 07:33N 46°30' W 084°36'9 9.1
2015-Jul-28 06:33N 46°31' W 084°23'0 0.3
2015-Jul-28 05:33N 46°31' W 084°23'0 0.0
2015-Jul-28 04:33N 46°31' W 084°23'0 0.0
2015-Jul-28 03:33N 46°31' W 084°23'0 0.0
2015-Jul-28 02:33N 46°31' W 084°23'2 1.6
2015-Jul-28 01:33N 46°30' W 084°24'9 8.6
2015-Jul-28 00:33N 46°30' W 084°37'22 0.9
2015-Jul-27 00:11N 46°48' W 084°57'2613.3
2015-Jul-26 22:11N 46°27' W 084°33'8 2.7
2015-Jul-26 19:14N 46°31' W 084°23'9 2.4
2015-Jul-26 15:27N 46°29' W 084°35'1313.2
2015-Jul-26 14:29N 46°39' W 084°47'1213.2
2015-Jul-26 13:33N 46°48' W 084°58'1413.6
2015-Jul-26 12:34N 46°50' W 085°18'1313.5
2015-Jul-26 11:34N 46°49' W 085°37'1413.6
2015-Jul-26 10:33N 46°47' W 085°57'1513.6
2015-Jul-26 09:29N 46°45' W 086°18'33 4.0
2015-Jul-26 01:11N 46°36' W 087°05'11211.1
2015-Jul-25 15:07N 46°31' W 084°23'0 0.0
2015-Jul-25 14:33N 46°31' W 084°23'0 0.0
2015-Jul-25 13:29N 46°31' W 084°23'8 0.2
2015-Jul-24 06:29N 46°27' W 084°32'8 7.7
2015-Jul-24 05:30N 46°31' W 084°23'0 0.0
2015-Jul-24 04:33N 46°31' W 084°23'0 0.0
2015-Jul-24 03:22N 46°31' W 084°23'0 0.0
2015-Jul-24 02:27N 46°31' W 084°23'0 0.0
2015-Jul-24 01:03N 46°31' W 084°23'1 1.2
2015-Jul-24 00:33N 46°31' W 084°23'7 6.6
2015-Jul-23 23:33N 46°27' W 084°31'1512.9
2015-Jul-23 22:25N 46°37' W 084°46'8912.7
2015-Jul-23 15:24N 46°45' W 086°55'  
Track history (hours):
 
Tides and Currents Weather Stations Pressure Air Temp Water Temp Dewpoint Dewpoint Depression Visibility Wind Speed Wind Dir Waves Ship Positions

Michipicoten

Last reported at 2015-Aug-02 05:33 UTC. Time now 2015-Aug-05 12:30 UTC.
Position N 41°54' W 080°48'.

Length 213 m.

Type: Ship. MMSI: 316002501.

Date/timePositionNaut miles runAvg speedWind from/ knotsBaromVisibWave heightAir tempDewpointWater temp
2015-Aug-02 05:33N 41°54' W 080°48'262 6.4
2015-Jul-31 12:32N 45°55' W 083°13'0 0.0
2015-Jul-31 11:19N 45°55' W 083°13'  
2015-Jul-29 02:33N 46°35' W 087°23'31 2.6
2015-Jul-28 14:30N 46°40' W 086°38'1313.8
2015-Jul-28 13:33N 46°46' W 086°21'1413.6
2015-Jul-28 12:34N 46°49' W 086°02'1413.6
2015-Jul-28 11:34N 46°50' W 085°42'1413.7
2015-Jul-28 10:33N 46°51' W 085°22'1413.6
2015-Jul-28 09:33N 46°48' W 085°02'1512.9
2015-Jul-28 08:23N 46°37' W 084°48'1113.7
2015-Jul-28 07:33N 46°30' W 084°36'9 9.1
2015-Jul-28 06:33N 46°31' W 084°23'0 0.3
2015-Jul-28 05:33N 46°31' W 084°23'0 0.0
2015-Jul-28 04:33N 46°31' W 084°23'0 0.0
2015-Jul-28 03:33N 46°31' W 084°23'0 0.0
2015-Jul-28 02:33N 46°31' W 084°23'2 1.6
2015-Jul-28 01:33N 46°30' W 084°24'9 8.6
2015-Jul-28 00:33N 46°30' W 084°37'22 0.9
2015-Jul-27 00:11N 46°48' W 084°57'2613.3
2015-Jul-26 22:11N 46°27' W 084°33'8 2.7
2015-Jul-26 19:14N 46°31' W 084°23'9 2.4
2015-Jul-26 15:27N 46°29' W 084°35'1313.2
2015-Jul-26 14:29N 46°39' W 084°47'1213.2
2015-Jul-26 13:33N 46°48' W 084°58'1413.6
2015-Jul-26 12:34N 46°50' W 085°18'1313.5
2015-Jul-26 11:34N 46°49' W 085°37'1413.6
2015-Jul-26 10:33N 46°47' W 085°57'1513.6
2015-Jul-26 09:29N 46°45' W 086°18'33 4.0
2015-Jul-26 01:11N 46°36' W 087°05'11211.1
2015-Jul-25 15:07N 46°31' W 084°23'0 0.0
2015-Jul-25 14:33N 46°31' W 084°23'0 0.0
2015-Jul-25 13:29N 46°31' W 084°23'8 0.2
2015-Jul-24 06:29N 46°27' W 084°32'8 7.7
2015-Jul-24 05:30N 46°31' W 084°23'0 0.0
2015-Jul-24 04:33N 46°31' W 084°23'0 0.0
2015-Jul-24 03:22N 46°31' W 084°23'0 0.0
2015-Jul-24 02:27N 46°31' W 084°23'0 0.0
2015-Jul-24 01:03N 46°31' W 084°23'1 1.2
2015-Jul-24 00:33N 46°31' W 084°23'7 6.6
2015-Jul-23 23:33N 46°27' W 084°31'1512.9
2015-Jul-23 22:25N 46°37' W 084°46'8912.7
2015-Jul-23 15:24N 46°45' W 086°55'  

Dump ship's entire track history